createdAt,value
2023-01-18T00:01:22.305Z,93215.66
2023-01-18T00:03:48.712Z,93231.84
2023-01-18T00:06:15.053Z,93218.73
2023-01-18T00:08:41.430Z,93233.56
2023-01-18T00:11:07.780Z,93221.51
2023-01-18T00:13:34.183Z,93245.55
2023-01-18T00:16:00.530Z,93240.73
2023-01-18T00:18:27.011Z,93248.97
2023-01-18T00:20:53.364Z,93222.80
2023-01-18T00:23:19.751Z,93238.14
2023-01-18T00:25:46.096Z,93250.45
2023-01-18T00:28:12.484Z,93247.25
2023-01-18T00:30:38.827Z,93257.08
2023-01-18T00:33:05.210Z,93260.18
2023-01-18T00:35:31.550Z,93224.64
2023-01-18T00:37:57.934Z,93239.98
2023-01-18T00:40:24.282Z,93251.13
2023-01-18T00:42:50.666Z,93230.30
2023-01-18T00:45:17.018Z,93232.87
2023-01-18T00:47:43.393Z,93212.52
2023-01-18T00:50:09.736Z,93212.52
2023-01-18T00:52:36.131Z,93208.64
2023-01-18T00:55:02.477Z,93241.30
2023-01-18T00:57:28.864Z,93239.66
2023-01-18T00:59:55.210Z,93226.61
2023-01-18T01:02:21.603Z,93214.98
2023-01-18T01:04:47.942Z,93234.81
2023-01-18T01:07:14.335Z,93230.30
2023-01-18T01:09:40.684Z,93245.80
2023-01-18T01:12:08.524Z,93234.84
2023-01-18T01:14:33.468Z,93238.27
2023-01-18T01:16:59.863Z,93237.91
2023-01-18T01:19:26.200Z,93237.91
2023-01-18T01:21:52.581Z,93250.83
2023-01-18T01:24:19.000Z,93244.89
2023-01-18T01:26:45.397Z,93227.41
2023-01-18T01:29:11.742Z,93249.38
2023-01-18T01:31:38.169Z,93231.97
2023-01-18T01:34:04.524Z,93224.86
2023-01-18T01:36:30.949Z,93227.45
2023-01-18T01:38:57.289Z,93225.51
2023-01-18T01:41:24.640Z,93241.52
2023-01-18T01:43:50.043Z,93210.03
2023-01-18T01:46:16.420Z,93229.57
2023-01-18T01:48:42.773Z,93237.62
2023-01-18T01:51:09.154Z,93239.75
2023-01-18T01:53:35.502Z,93235.39
2023-01-18T01:56:01.889Z,93244.11
2023-01-18T02:01:10.548Z,93233.77
2023-01-18T02:03:36.904Z,93243.78
2023-01-18T02:06:03.256Z,93251.53
2023-01-18T02:08:29.666Z,93257.52
2023-01-18T02:10:55.995Z,93224.11
2023-01-18T02:13:22.388Z,93262.55
2023-01-18T02:15:48.734Z,93234.25
2023-01-18T02:18:15.113Z,93214.42
2023-01-18T02:20:41.463Z,93247.50
2023-01-18T02:23:07.876Z,93236.52
2023-01-18T02:25:34.212Z,93250.92
2023-01-18T02:28:00.631Z,93220.72
2023-01-18T02:30:26.987Z,93222.98
2023-01-18T02:32:56.096Z,93222.17
2023-01-18T02:35:19.736Z,93227.18
2023-01-18T02:37:46.113Z,93228.95
2023-01-18T02:40:12.458Z,93239.10
2023-01-18T02:42:38.873Z,93239.32
2023-01-18T02:45:05.260Z,93258.19
2023-01-18T02:47:31.607Z,93250.14
2023-01-18T02:49:57.955Z,93249.30
2023-01-18T02:52:24.338Z,93258.00
2023-01-18T02:54:50.681Z,93237.70
2023-01-18T02:57:17.076Z,93267.88
2023-01-18T02:59:43.429Z,93237.22
2023-01-18T03:02:09.904Z,93266.91
2023-01-18T03:04:36.178Z,93273.69
2023-01-18T03:07:02.579Z,93267.39
2023-01-18T03:09:28.920Z,93257.08
2023-01-18T03:11:55.306Z,93255.84
2023-01-18T03:14:21.656Z,93225.94
2023-01-18T03:16:48.046Z,93249.03
2023-01-18T03:19:14.389Z,93227.23
2023-01-18T03:21:40.775Z,93258.70
2023-01-18T03:24:07.156Z,93215.61
2023-01-18T03:26:33.558Z,93253.88
2023-01-18T03:28:59.911Z,93206.76
2023-01-18T03:31:26.292Z,93215.31
2023-01-18T03:33:52.639Z,93215.64
2023-01-18T03:36:19.028Z,93226.27
2023-01-18T03:38:45.441Z,93221.42
2023-01-18T03:41:11.791Z,93220.30
2023-01-18T03:43:38.183Z,93237.92
2023-01-18T03:46:04.550Z,93219.52
2023-01-18T03:48:30.917Z,93227.08
2023-01-18T03:50:57.265Z,93251.16
2023-01-18T03:53:23.649Z,93243.73
2023-01-18T03:55:49.995Z,93250.00
2023-01-18T03:58:16.383Z,93255.52
2023-01-18T04:00:42.797Z,93238.89
2023-01-18T04:03:09.221Z,93264.23
2023-01-18T04:05:35.526Z,93221.12
2023-01-18T04:08:01.924Z,93223.06
2023-01-18T04:10:28.282Z,93231.33
2023-01-18T04:12:54.662Z,93241.47
2023-01-18T04:15:21.007Z,93231.95
2023-01-18T04:17:47.398Z,93242.14
2023-01-18T04:20:13.767Z,93237.59
2023-01-18T04:22:40.191Z,93248.61
2023-01-18T04:25:06.533Z,93249.57
2023-01-18T04:27:32.929Z,93236.98
2023-01-18T04:29:59.269Z,93240.37
2023-01-18T04:32:25.666Z,93211.95
2023-01-18T04:34:52.029Z,93196.48
2023-01-18T04:37:18.413Z,93217.12
2023-01-18T04:39:44.789Z,93195.64
2023-01-18T04:42:11.178Z,93223.84
2023-01-18T04:44:37.523Z,93229.84
2023-01-18T04:47:03.923Z,93238.38
2023-01-18T04:49:30.256Z,93214.99
2023-01-18T04:51:56.667Z,93238.38
2023-01-18T04:54:23.031Z,93213.83
2023-01-18T04:56:49.413Z,93223.81
2023-01-18T04:59:15.761Z,93202.34
2023-01-18T05:01:42.227Z,93199.46
2023-01-18T05:04:08.520Z,93217.03
2023-01-18T05:06:34.906Z,93211.70
2023-01-18T05:09:01.305Z,93220.42
2023-01-18T05:11:27.705Z,93234.63
2023-01-18T05:13:54.048Z,93199.59
2023-01-18T05:16:20.481Z,93257.24
2023-01-18T05:18:46.802Z,93236.73
2023-01-18T05:21:14.132Z,93226.89
2023-01-18T05:23:39.528Z,93211.58
2023-01-18T05:26:05.917Z,93202.92
2023-01-18T05:28:32.253Z,93210.84
2023-01-18T05:30:58.712Z,93232.64
2023-01-18T05:33:25.062Z,93212.29
2023-01-18T05:35:51.442Z,93223.41
2023-01-18T05:38:17.803Z,93229.67
2023-01-18T05:40:44.188Z,93258.59
2023-01-18T05:43:10.541Z,93260.20
2023-01-18T05:45:36.954Z,93256.14
2023-01-18T05:48:03.282Z,93273.59
2023-01-18T05:50:29.663Z,93282.80
2023-01-18T05:52:56.396Z,93262.92
2023-01-18T05:55:22.462Z,93260.60
2023-01-18T05:57:48.785Z,93275.50
2023-01-18T06:00:15.155Z,93270.00
2023-01-18T06:02:41.499Z,93273.39
2023-01-18T06:05:07.902Z,93266.74
2023-01-18T06:07:34.256Z,93267.58
2023-01-18T06:10:00.642Z,93284.19
2023-01-18T06:12:27.004Z,93266.23
2023-01-18T06:14:53.389Z,93261.73
2023-01-18T06:17:19.727Z,93273.02
2023-01-18T06:19:46.118Z,93268.98
2023-01-18T06:22:12.454Z,93273.20
2023-01-18T06:24:38.845Z,93266.69
2023-01-18T06:27:05.195Z,93271.02
2023-01-18T06:29:31.575Z,93261.00
2023-01-18T06:31:57.974Z,93274.25
2023-01-18T06:34:24.303Z,93278.26
2023-01-18T06:36:50.650Z,93281.13
2023-01-18T06:39:17.068Z,93265.91
2023-01-18T06:41:43.417Z,93289.34
2023-01-18T06:44:09.839Z,93273.34
2023-01-18T06:46:36.183Z,93275.77
2023-01-18T06:49:02.576Z,93279.55
2023-01-18T06:51:28.927Z,93272.16
2023-01-18T06:53:55.309Z,93283.08
2023-01-18T06:56:21.656Z,93275.52
2023-01-18T06:58:48.053Z,93250.14
2023-01-18T07:01:14.449Z,93261.38
2023-01-18T07:03:40.850Z,93235.07
2023-01-18T07:06:07.136Z,93232.48
2023-01-18T07:08:33.532Z,93230.51
2023-01-18T07:10:59.881Z,93206.59
2023-01-18T07:13:27.215Z,93206.75
2023-01-18T07:15:52.616Z,93219.96
2023-01-18T07:18:19.040Z,93204.25
2023-01-18T07:20:45.372Z,93200.98
2023-01-18T07:23:11.773Z,93204.57
2023-01-18T07:25:38.134Z,93189.98
2023-01-18T07:28:04.509Z,93206.16
2023-01-18T07:30:30.852Z,93184.98
2023-01-18T07:32:57.677Z,93165.28
2023-01-18T07:35:23.649Z,93167.06
2023-01-18T07:37:50.032Z,93186.47
2023-01-18T07:40:16.380Z,93174.14
2023-01-18T07:42:42.838Z,93166.70
2023-01-18T07:45:09.181Z,93171.19
2023-01-18T07:47:35.592Z,93193.75
2023-01-18T07:50:01.955Z,93204.42
2023-01-18T07:52:28.379Z,93218.33
2023-01-18T07:54:54.714Z,93228.86
2023-01-18T07:57:21.097Z,93220.42
2023-01-18T07:59:47.463Z,93252.76
2023-01-18T08:02:13.891Z,93260.33
2023-01-18T08:04:40.205Z,93295.45
2023-01-18T08:07:06.613Z,93305.56
2023-01-18T08:09:33.009Z,93317.89
2023-01-18T08:11:59.416Z,93301.69
2023-01-18T08:14:25.784Z,93318.38
2023-01-18T08:16:52.177Z,93349.03
2023-01-18T08:19:18.518Z,93356.02
2023-01-18T08:21:44.915Z,93365.05
2023-01-18T08:24:11.263Z,93365.02
2023-01-18T08:26:37.723Z,93385.52
2023-01-18T08:29:04.078Z,93386.01
2023-01-18T08:31:30.517Z,93377.76
2023-01-18T08:33:56.822Z,93378.56
2023-01-18T08:36:23.239Z,93397.17
2023-01-18T08:38:49.575Z,93372.06
2023-01-18T08:41:15.960Z,93362.36
2023-01-18T08:43:42.313Z,93357.86
2023-01-18T08:46:08.717Z,93346.41
2023-01-18T08:48:35.230Z,93369.34
2023-01-18T08:51:01.593Z,93364.17
2023-01-18T08:53:27.939Z,93371.77
2023-01-18T08:55:54.337Z,93371.48
2023-01-18T08:58:20.724Z,93370.03
2023-01-18T09:00:47.143Z,93370.58
2023-01-18T09:03:13.468Z,93370.58
2023-01-18T09:05:39.843Z,93358.12
2023-01-18T09:08:07.126Z,93379.34
2023-01-18T09:10:32.564Z,93372.80
2023-01-18T09:12:59.226Z,93381.38
2023-01-18T09:15:25.289Z,93380.53
2023-01-18T09:17:51.638Z,93406.42
2023-01-18T09:20:19.119Z,93418.88
2023-01-18T09:22:44.353Z,93440.27
2023-01-18T09:25:10.736Z,93441.20
2023-01-18T09:27:37.113Z,93441.20
2023-01-18T09:30:03.495Z,93444.63
2023-01-18T09:32:29.844Z,93456.05
2023-01-18T09:34:56.237Z,93445.54
2023-01-18T09:37:22.610Z,93444.73
2023-01-18T09:39:52.198Z,93444.73
2023-01-18T09:42:15.335Z,93437.13
2023-01-18T09:44:41.707Z,93430.65
2023-01-18T09:47:08.058Z,93430.65
2023-01-18T09:49:34.434Z,93426.18
2023-01-18T09:52:00.787Z,93461.45
2023-01-18T09:54:27.187Z,93450.62
2023-01-18T09:56:53.558Z,93445.38
2023-01-18T09:59:19.952Z,93442.76
2023-01-18T10:01:46.440Z,93441.36
2023-01-18T10:04:12.693Z,93424.54
2023-01-18T10:06:39.066Z,93414.09
2023-01-18T10:09:05.452Z,93454.77
2023-01-18T10:11:31.813Z,93436.41
2023-01-18T10:13:58.185Z,93421.79
2023-01-18T10:16:24.561Z,93441.91
2023-01-18T10:18:50.924Z,93426.38
2023-01-18T10:21:17.265Z,93447.45
2023-01-18T10:23:43.651Z,93447.45
2023-01-18T10:26:10.005Z,93433.66
2023-01-18T10:28:36.377Z,93465.02
2023-01-18T10:31:02.726Z,93465.02
2023-01-18T10:33:29.151Z,93477.97
2023-01-18T10:35:55.485Z,93469.10
2023-01-18T10:38:21.884Z,93477.97
2023-01-18T10:40:48.262Z,93487.97
2023-01-18T10:43:14.649Z,93493.99
2023-01-18T10:45:41.066Z,93493.31
2023-01-18T10:48:07.411Z,93516.66
2023-01-18T10:50:33.747Z,93516.66
2023-01-18T10:53:00.545Z,93510.50
2023-01-18T10:55:26.485Z,93521.45
2023-01-18T10:57:52.858Z,93521.45
2023-01-18T11:00:19.196Z,93527.63
2023-01-18T11:02:45.653Z,93536.22
2023-01-18T11:05:11.915Z,93541.91
2023-01-18T11:07:38.296Z,93524.84
2023-01-18T11:10:04.653Z,93524.84
2023-01-18T11:12:31.031Z,93518.89
2023-01-18T11:14:57.379Z,93505.41
2023-01-18T11:17:23.793Z,93495.25
2023-01-18T11:19:50.128Z,93505.79
2023-01-18T11:22:16.610Z,93505.79
2023-01-18T11:24:43.930Z,93506.96
2023-01-18T11:27:09.334Z,93496.69
2023-01-18T11:29:35.789Z,93497.46
2023-01-18T11:32:02.236Z,93492.92
2023-01-18T11:34:28.525Z,93469.95
2023-01-18T11:36:54.907Z,93516.97
2023-01-18T11:39:21.250Z,93532.94
2023-01-18T11:41:47.629Z,93522.45
2023-01-18T11:44:13.991Z,93530.25
2023-01-18T11:46:40.396Z,93530.25
2023-01-18T11:49:06.747Z,93530.61
2023-01-18T11:51:33.144Z,93544.63
2023-01-18T11:53:59.479Z,93548.68
2023-01-18T11:56:25.862Z,93537.31
2023-01-18T11:58:52.228Z,93542.14
2023-01-18T12:01:18.674Z,93551.14
2023-01-18T12:03:45.047Z,93543.81
2023-01-18T12:06:11.392Z,93520.95
2023-01-18T12:08:37.752Z,93548.31
2023-01-18T12:11:04.120Z,93538.56
2023-01-18T12:13:30.454Z,93531.15
2023-01-18T12:15:56.838Z,93533.09
2023-01-18T12:18:23.200Z,93559.81
2023-01-18T12:20:49.622Z,93551.59
2023-01-18T12:23:15.991Z,93550.49
2023-01-18T12:25:42.366Z,93550.49
2023-01-18T12:28:08.729Z,93572.26
2023-01-18T12:30:35.194Z,93563.83
2023-01-18T12:33:01.623Z,93528.21
2023-01-18T12:35:27.884Z,93528.21
2023-01-18T12:37:54.227Z,93557.52
2023-01-18T12:40:20.605Z,93564.77
2023-01-18T12:42:46.951Z,93569.76
2023-01-18T12:45:13.364Z,93573.80
2023-01-18T12:47:39.707Z,93592.53
2023-01-18T12:50:06.093Z,93574.95
2023-01-18T12:52:32.489Z,93601.60
2023-01-18T12:54:58.874Z,93621.14
2023-01-18T12:57:25.231Z,93624.44
2023-01-18T12:59:51.609Z,93624.44
2023-01-18T13:02:17.988Z,93625.50
2023-01-18T13:04:44.395Z,93615.95
2023-01-18T13:07:10.737Z,93630.97
2023-01-18T13:09:37.121Z,93642.05
2023-01-18T13:12:03.479Z,93660.17
2023-01-18T13:14:29.953Z,93639.55
2023-01-18T13:16:56.297Z,93645.41
2023-01-18T13:19:24.634Z,93646.34
2023-01-18T13:21:49.046Z,93652.87
2023-01-18T13:24:15.464Z,93640.84
2023-01-18T13:26:41.807Z,93650.64
2023-01-18T13:29:08.192Z,93643.83
2023-01-18T13:31:34.595Z,93625.45
2023-01-18T13:34:00.971Z,93641.11
2023-01-18T13:36:27.326Z,93648.77
2023-01-18T13:38:53.722Z,93653.50
2023-01-18T13:41:20.061Z,93646.39
2023-01-18T13:43:46.463Z,93650.84
2023-01-18T13:46:12.854Z,93648.61
2023-01-18T13:48:39.207Z,93646.92
2023-01-18T13:51:06.894Z,93650.01
2023-01-18T13:53:32.020Z,93639.13
2023-01-18T13:55:58.318Z,93629.17
2023-01-18T13:58:24.769Z,93649.17
2023-01-18T14:00:51.116Z,93652.90
2023-01-18T14:03:17.497Z,93655.20
2023-01-18T14:05:43.813Z,93656.30
2023-01-18T14:08:13.195Z,93661.84
2023-01-18T14:10:39.650Z,93670.30
2023-01-18T14:13:05.954Z,93669.16
2023-01-18T14:15:32.356Z,93667.22
2023-01-18T14:17:59.412Z,93672.47
2023-01-18T14:20:25.089Z,93680.64
2023-01-18T14:22:51.433Z,93687.95
2023-01-18T14:25:17.832Z,93682.70
2023-01-18T14:27:44.186Z,93684.22
2023-01-18T14:30:10.637Z,93692.47
2023-01-18T14:32:36.962Z,93707.54
2023-01-18T14:35:03.363Z,93705.24
2023-01-18T14:37:29.761Z,93703.67
2023-01-18T14:39:56.091Z,93699.33
2023-01-18T14:42:22.456Z,93713.61
2023-01-18T14:44:57.741Z,93713.45
2023-01-18T14:47:23.875Z,93710.67
2023-01-18T14:49:41.589Z,93719.14
2023-01-18T14:52:08.665Z,93716.84
2023-01-18T14:54:34.319Z,93713.69
2023-01-18T14:57:00.650Z,93724.97
2023-01-18T14:59:27.047Z,93723.22
2023-01-18T15:01:53.512Z,93700.54
2023-01-18T15:04:19.778Z,93701.81
2023-01-18T15:06:46.114Z,93713.02
2023-01-18T15:09:12.629Z,93714.77
2023-01-18T15:11:38.945Z,93680.42
2023-01-18T15:14:05.344Z,93722.41
2023-01-18T15:16:31.704Z,93719.81
2023-01-18T15:18:58.065Z,93722.89
2023-01-18T15:21:24.413Z,93730.39
2023-01-18T15:23:50.799Z,93730.06
2023-01-18T15:26:17.174Z,93721.96
2023-01-18T15:28:43.589Z,93723.26
2023-01-18T15:31:09.974Z,93720.67
2023-01-18T15:33:36.325Z,93732.81
2023-01-18T15:36:02.727Z,93725.71
2023-01-18T15:38:29.117Z,93723.94
2023-01-18T15:40:55.461Z,93730.41
2023-01-18T15:43:21.874Z,93726.52
2023-01-18T15:45:48.242Z,93713.80
2023-01-18T15:48:16.537Z,93726.22
2023-01-18T15:50:40.936Z,93724.92
2023-01-18T15:53:07.335Z,93729.29
2023-01-18T15:55:33.683Z,93727.36
2023-01-18T15:58:00.521Z,93730.98
2023-01-18T16:00:26.462Z,93725.45
2023-01-18T16:02:52.902Z,93720.92
2023-01-18T16:05:19.183Z,93717.69
2023-01-18T16:07:45.574Z,93718.34
2023-01-18T16:10:11.988Z,93723.82
2023-01-18T16:12:38.365Z,93688.50
2023-01-18T16:15:04.738Z,93710.92
2023-01-18T16:17:31.136Z,93710.92
2023-01-18T16:19:57.469Z,93712.98
2023-01-18T16:22:23.873Z,93725.60
2023-01-18T16:24:50.246Z,93713.55
2023-01-18T16:27:16.629Z,93731.80
2023-01-18T16:29:44.073Z,93726.08
2023-01-18T16:32:09.416Z,93725.79
2023-01-18T16:34:35.766Z,93740.33
2023-01-18T16:37:02.171Z,93732.53
2023-01-18T16:39:28.499Z,93727.22
2023-01-18T16:41:54.885Z,93729.29
2023-01-18T16:44:21.236Z,93714.27
2023-01-18T16:46:47.601Z,93729.00
2023-01-18T16:49:13.954Z,93730.59
2023-01-18T16:51:40.337Z,93718.66
2023-01-18T16:54:06.708Z,93731.26
2023-01-18T16:56:33.113Z,93739.36
2023-01-18T16:58:59.447Z,93732.55
2023-01-18T17:01:25.906Z,93732.55
2023-01-18T17:03:52.188Z,93734.34
2023-01-18T17:06:18.562Z,93730.17
2023-01-18T17:08:44.900Z,93732.23
2023-01-18T17:11:11.282Z,93726.91
2023-01-18T17:13:37.651Z,93723.34
2023-01-18T17:16:04.049Z,93718.97
2023-01-18T17:18:30.382Z,93720.61
2023-01-18T17:20:56.776Z,93720.77
2023-01-18T17:23:23.116Z,93728.03
2023-01-18T17:25:50.908Z,93727.08
2023-01-18T17:28:15.829Z,93735.66
2023-01-18T17:30:42.260Z,93735.66
2023-01-18T17:33:08.571Z,93734.18
2023-01-18T17:35:34.968Z,93748.42
2023-01-18T17:38:06.499Z,93757.54
2023-01-18T17:40:38.695Z,93746.05
2023-01-18T17:42:54.046Z,93750.55
2023-01-18T17:45:20.440Z,93752.84
2023-01-18T17:47:46.787Z,93763.20
2023-01-18T17:50:13.168Z,93763.20
2023-01-18T17:52:39.507Z,93762.39
2023-01-18T17:55:05.890Z,93762.39
2023-01-18T17:57:32.232Z,93769.97
2023-01-18T17:59:58.628Z,93774.05
2023-01-18T18:02:25.160Z,93774.05
2023-01-18T18:04:51.403Z,93757.07
2023-01-18T18:07:17.747Z,93767.26
2023-01-18T18:09:44.122Z,93770.50
2023-01-18T18:12:10.489Z,93780.66
2023-01-18T18:14:36.880Z,93771.19
2023-01-18T18:17:05.376Z,93771.19
2023-01-18T18:19:29.596Z,93795.11
2023-01-18T18:21:56.035Z,93767.17
2023-01-18T18:24:23.309Z,93767.17
2023-01-18T18:26:49.794Z,93778.61
2023-01-18T18:29:16.177Z,93787.82
2023-01-18T18:31:42.511Z,93794.45
2023-01-18T18:34:08.893Z,93794.45
2023-01-18T18:36:35.247Z,93769.28
2023-01-18T18:39:01.612Z,93769.28
2023-01-18T18:41:27.948Z,93790.42
2023-01-18T18:43:54.573Z,93775.09
2023-01-18T18:46:21.127Z,93769.42
2023-01-18T18:48:47.431Z,93793.02
2023-01-18T18:51:13.767Z,93802.74
2023-01-18T18:53:40.895Z,93803.37
2023-01-18T18:56:06.523Z,93807.44
2023-01-18T18:58:32.899Z,93801.78
2023-01-18T19:00:59.264Z,93802.90
2023-01-18T19:03:25.718Z,93807.64
2023-01-18T19:05:52.059Z,93807.64
2023-01-18T19:08:18.628Z,93838.19
2023-01-18T19:10:45.029Z,93832.20
2023-01-18T19:13:11.477Z,93839.62
2023-01-18T19:15:37.840Z,93836.40
2023-01-18T19:18:04.217Z,93836.40
2023-01-18T19:20:30.587Z,93842.22
2023-01-18T19:22:57.026Z,93821.69
2023-01-18T19:25:23.327Z,93845.47
2023-01-18T19:27:49.719Z,93860.81
2023-01-18T19:30:16.076Z,93852.57
2023-01-18T19:32:42.449Z,93861.48
2023-01-18T19:35:08.792Z,93868.30
2023-01-18T19:37:35.176Z,93868.30
2023-01-18T19:40:01.518Z,93840.35
2023-01-18T19:42:27.899Z,93840.35
2023-01-18T19:44:59.283Z,93864.91
2023-01-18T19:47:20.630Z,93866.38
2023-01-18T19:49:46.968Z,93872.19
2023-01-18T19:52:13.388Z,93863.31
2023-01-18T19:54:39.730Z,93858.47
2023-01-18T19:57:06.224Z,93854.73
2023-01-18T19:59:35.429Z,93865.42
2023-01-18T20:02:01.947Z,93842.17
2023-01-18T20:04:28.135Z,93857.99
2023-01-18T20:06:54.517Z,93857.99
2023-01-18T20:09:24.979Z,93864.77
2023-01-18T20:11:47.252Z,93875.78
2023-01-18T20:14:13.585Z,93881.30
2023-01-18T20:16:40.095Z,93882.73
2023-01-18T20:19:06.400Z,93871.91
2023-01-18T20:21:32.711Z,93871.91
2023-01-18T20:24:00.320Z,93863.98
2023-01-18T20:26:35.983Z,93864.80
2023-01-18T20:28:51.797Z,93878.56
2023-01-18T20:31:18.199Z,93893.76
2023-01-18T20:33:44.515Z,93890.84
2023-01-18T20:36:12.332Z,93872.42
2023-01-18T20:38:37.244Z,93883.26
2023-01-18T20:41:03.628Z,93855.13
2023-01-18T20:43:29.983Z,93855.13
2023-01-18T20:45:56.389Z,93848.66
2023-01-18T20:48:22.704Z,93848.66
2023-01-18T20:50:49.139Z,93865.17
2023-01-18T20:53:15.493Z,93865.17
2023-01-18T20:55:44.326Z,93869.02
2023-01-18T20:58:10.703Z,93867.43
2023-01-18T21:00:37.103Z,93867.43
2023-01-18T21:03:03.805Z,93855.27
2023-01-18T21:05:29.806Z,93855.60
2023-01-18T21:07:56.140Z,93835.09
2023-01-18T21:10:22.551Z,93843.18
2023-01-18T21:12:49.201Z,93843.18
2023-01-18T21:15:15.310Z,93863.06
2023-01-18T21:17:41.656Z,93831.98
2023-01-18T21:20:08.073Z,93842.84
2023-01-18T21:22:34.411Z,93862.59
2023-01-18T21:25:00.803Z,93862.59
2023-01-18T21:27:27.153Z,93852.23
2023-01-18T21:29:53.554Z,93847.06
2023-01-18T21:32:19.860Z,93834.30
2023-01-18T21:34:46.278Z,93834.30
2023-01-18T21:37:14.009Z,93840.89
2023-01-18T21:39:39.118Z,93823.14
2023-01-18T21:42:05.399Z,93823.14
2023-01-18T21:44:31.817Z,93796.80
2023-01-18T21:46:58.156Z,93800.78
2023-01-18T21:49:32.892Z,93800.78
2023-01-18T21:51:50.875Z,93803.05
2023-01-18T21:54:17.298Z,93804.22
2023-01-18T21:56:43.657Z,93813.27
2023-01-18T21:59:10.058Z,93797.87
2023-01-18T22:01:36.432Z,93794.80
2023-01-18T22:04:02.800Z,93795.61
2023-01-18T22:06:29.146Z,93801.78
2023-01-18T22:08:55.548Z,93800.49
2023-01-18T22:11:21.869Z,93829.73
2023-01-18T22:13:48.248Z,93829.73
2023-01-18T22:16:14.653Z,93798.53
2023-01-18T22:18:40.971Z,93806.30
2023-01-18T22:21:07.325Z,93816.31
2023-01-18T22:23:33.740Z,93789.52
2023-01-18T22:26:00.071Z,93822.00
2023-01-18T22:28:26.439Z,93822.00
2023-01-18T22:30:52.828Z,93817.94
2023-01-18T22:33:19.203Z,93817.94
2023-01-18T22:35:45.563Z,93807.11
2023-01-18T22:38:11.950Z,93805.00
2023-01-18T22:40:38.297Z,93800.34
2023-01-18T22:43:04.684Z,93791.29
2023-01-18T22:45:31.034Z,93807.92
2023-01-18T22:47:57.722Z,93807.92
2023-01-18T22:50:23.811Z,93795.98
2023-01-18T22:52:50.188Z,93790.33
2023-01-18T22:55:16.587Z,93811.17
2023-01-18T22:57:42.954Z,93779.17
2023-01-18T23:00:09.308Z,93789.84
2023-01-18T23:02:35.696Z,93771.74
2023-01-18T23:05:02.051Z,93788.38
2023-01-18T23:07:28.477Z,93777.58
2023-01-18T23:09:54.800Z,93797.28
2023-01-18T23:12:21.296Z,93778.84
2023-01-18T23:14:47.674Z,93766.39
2023-01-18T23:17:14.058Z,93785.31
2023-01-18T23:19:40.399Z,93786.59
2023-01-18T23:22:06.893Z,93778.69
2023-01-18T23:24:33.119Z,93778.69
2023-01-18T23:26:59.497Z,93780.47
2023-01-18T23:29:25.833Z,93796.80
2023-01-18T23:31:52.245Z,93784.34
2023-01-18T23:34:18.587Z,93767.39
2023-01-18T23:36:44.986Z,93767.39
2023-01-18T23:39:11.325Z,93785.97
2023-01-18T23:41:37.717Z,93790.03
2023-01-18T23:44:04.095Z,93787.59
2023-01-18T23:46:30.561Z,93787.59
2023-01-18T23:48:56.813Z,93795.50
2023-01-18T23:51:23.224Z,93789.22
2023-01-18T23:53:49.550Z,93768.86
2023-01-18T23:56:15.934Z,93760.63
2023-01-18T23:58:42.271Z,93760.63
